Time;durP1;ratioP1;P1;durP2;ratioP2;P2;SDS_P1;SDS_P2;PMS_P1;PMS_P2;Temp;Humidity;BMP_temperature;BMP_pressure;BME280_temperature;BME280_humidity;BME280_pressure;Samples;Min_cycle;Max_cycle;Signal;HPM_P1;HPM_P2
2022/04/22 00:00:11;;;;;;;;;;;14.50;70.10;14.80;97920.00;;;;346219;28;86357;-92
2022/04/22 00:00:23;;;;;;;;;;;14.50;70.10;14.70;97919.00;;;;341695;28;88467;-91
2022/04/22 00:00:38;;;;;;;;;;;14.50;70.10;14.70;97921.00;;;;344877;28;85719;-92
2022/04/22 00:00:50;;;;;;;;;;;14.50;70.10;14.70;97921.00;;;;344546;28;88182;-92
2022/04/22 00:01:02;;;;;;;;;;;14.50;70.10;14.80;97917.00;;;;346200;28;84699;-91
2022/04/22 00:01:14;;;;;;;;;;;14.50;70.60;14.80;97914.00;;;;344521;28;88694;-91
2022/04/22 00:01:26;;;;;;;;;;;14.50;69.90;14.80;97919.00;;;;343487;28;85021;-91
2022/04/22 00:01:38;;;;;;;;;;;14.50;70.60;14.90;97918.00;;;;342505;28;87486;-92
2022/04/22 00:01:50;;;;;;;;;;;14.50;70.00;14.90;97919.00;;;;344800;28;84884;-92
2022/04/22 00:02:02;;;;;;;;;;;14.50;70.10;14.90;97916.00;;;;341870;28;86904;-92
2022/04/22 00:02:17;;;;;;;;;;;14.50;69.90;14.90;97915.00;;;;344769;28;85101;-92
2022/04/22 00:02:29;;;;;;;;;;;14.50;70.00;14.90;97919.00;;;;344267;28;86971;-92
2022/04/22 00:02:41;;;;;;;;;;;14.50;70.00;14.90;97919.00;;;;344544;28;86131;-92
2022/04/22 00:02:54;;;;;;;;;;;14.50;69.90;14.90;97918.00;;;;345978;28;87157;-92
2022/04/22 00:03:07;;;;;;;;;;;14.50;69.90;14.90;97923.00;;;;346347;28;85841;-92
2022/04/22 00:03:18;;;;;;;;;;;14.50;70.00;14.80;97912.00;;;;343216;28;88595;-92
2022/04/22 00:03:30;;;;;;;;;;;14.50;69.90;14.80;97908.00;;;;344903;28;84262;-91
2022/04/22 00:03:42;;;;;;;;;;;14.50;70.50;14.70;97911.00;;;;341713;28;88430;-91
2022/04/22 00:03:55;;;;;;;;;;;14.50;70.10;14.70;97917.00;;;;346130;28;85093;-92
2022/04/22 00:04:07;;;;;;;;;;;14.50;70.20;14.70;97916.00;;;;344563;28;87338;-92
2022/04/22 00:04:19;;;;;;;;;;;14.50;70.20;14.70;97919.00;;;;344737;28;86403;-92
2022/04/22 00:04:31;;;;;;;;;;;14.50;70.20;14.70;97914.00;;;;343163;28;87328;-92
2022/04/22 00:04:44;;;;;;;;;;;14.50;70.10;14.70;97920.00;;;;344602;28;85562;-92
2022/04/22 00:04:56;;;;;;;;;;;14.50;70.10;14.70;97922.00;;;;343013;28;88577;-92
2022/04/22 00:05:08;;;;;;;;;;;14.50;70.30;14.60;97920.00;;;;344385;28;85143;-92
2022/04/22 00:05:20;;;;;;;;;;;14.40;70.40;14.70;97913.00;;;;341901;28;87105;-92
2022/04/22 00:05:31;;;;;;;;;;;14.50;70.30;14.70;97912.00;;;;343431;28;86664;-92
2022/04/22 00:05:43;;;;;;;;;;;14.50;70.30;14.70;97926.00;;;;343044;28;87083;-92
2022/04/22 00:05:55;;;;;;;;;;;14.40;70.40;14.70;97919.00;;;;340496;28;85176;-92
2022/04/22 00:06:07;;;;;;;;;;;14.50;70.30;14.70;97911.00;;;;343195;28;86226;-92
2022/04/22 00:06:19;;;;;;;;;;;14.40;70.30;14.70;97910.00;;;;343409;28;85033;-92
2022/04/22 00:06:31;;;;;;;;;;;14.50;70.70;14.70;97920.00;;;;343334;28;86963;-91
2022/04/22 00:06:43;;;;;;;;;;;14.40;70.80;14.70;97918.00;;;;343523;28;84849;-92
2022/04/22 00:06:55;;;;;;;;;;;14.40;70.50;14.70;97915.00;;;;343169;28;87087;-91
2022/04/22 00:07:07;;;;;;;;;;;14.40;70.60;14.60;97909.00;;;;344844;28;85871;-92
2022/04/22 00:07:18;;;;;;;;;;;14.40;70.70;14.70;97914.00;;;;344640;28;86755;-92
2022/04/22 00:07:30;;;;;;;;;;;14.40;70.60;14.70;97915.00;;;;343272;28;84887;-91
2022/04/22 00:07:43;;;;;;;;;;;14.40;70.60;14.60;97919.00;;;;344253;28;89100;-92
2022/04/22 00:07:55;;;;;;;;;;;14.40;70.80;14.60;97918.00;;;;346218;28;85447;-92
2022/04/22 00:08:07;;;;;;;;;;;14.40;70.80;14.60;97916.00;;;;343060;28;88305;-92
2022/04/22 00:08:21;;;;;;;;;;;14.40;70.80;14.60;97922.00;;;;342017;28;84912;-91
2022/04/22 00:08:33;;;;;;;;;;;14.40;70.80;14.60;97912.00;;;;341487;28;87943;-92
2022/04/22 00:08:45;;;;;;;;;;;14.40;70.80;14.60;97914.00;;;;342055;28;85578;-92
2022/04/22 00:08:57;;;;;;;;;;;14.40;70.80;14.60;97906.00;;;;343258;28;87075;-92
2022/04/22 00:09:09;;;;;;;;;;;14.40;70.90;14.50;97920.00;;;;344889;28;84842;-92
2022/04/22 00:09:21;;;;;;;;;;;14.40;70.80;14.50;97916.00;;;;344521;28;86807;-91
2022/04/22 00:09:32;;;;;;;;;;;14.30;70.70;14.50;97915.00;;;;344640;28;85039;-91
2022/04/22 00:09:44;;;;;;;;;;;14.30;70.50;14.60;97913.00;;;;343017;28;86165;-92
2022/04/22 00:09:56;;;;;;;;;;;14.30;70.20;14.60;97923.00;;;;341868;28;85990;-91
2022/04/22 00:10:10;;;;;;;;;;;14.40;70.60;14.60;97915.00;;;;343135;28;86841;-92
2022/04/22 00:10:22;;;;;;;;;;;14.30;70.70;14.50;97921.00;;;;343283;28;86112;-92
2022/04/22 00:10:34;;;;;;;;;;;14.40;70.80;14.50;97924.00;;;;342823;28;88387;-92
2022/04/22 00:11:31;;;;;;;;;;;14.30;70.70;14.50;97919.00;;;;343209;28;87255;-92
2022/04/22 00:11:48;;;;;;;;;;;14.30;70.80;14.50;97921.00;;;;343518;28;84357;-93
2022/04/22 00:12:00;;;;;;;;;;;14.30;70.90;14.50;97915.00;;;;344564;28;86593;-91
2022/04/22 00:12:12;;;;;;;;;;;14.30;71.00;14.60;97918.00;;;;343422;28;85432;-91
2022/04/22 00:12:24;;;;;;;;;;;14.30;70.70;14.60;97920.00;;;;341588;28;87014;-92
2022/04/22 00:12:37;;;;;;;;;;;14.30;70.70;14.70;97919.00;;;;343425;28;85660;-93
2022/04/22 00:12:49;;;;;;;;;;;14.30;70.70;14.70;97914.00;;;;343208;28;88164;-92
2022/04/22 00:13:01;;;;;;;;;;;14.30;70.70;14.60;97918.00;;;;341987;28;83987;-92
2022/04/22 00:13:13;;;;;;;;;;;14.30;70.70;14.60;97913.00;;;;341873;28;88152;-91
2022/04/22 00:13:25;;;;;;;;;;;14.30;70.80;14.50;97918.00;;;;343354;28;86733;-92
2022/04/22 00:13:37;;;;;;;;;;;14.30;70.90;14.60;97918.00;;;;345135;28;87811;-92
2022/04/22 00:13:49;;;;;;;;;;;14.30;70.70;14.60;97910.00;;;;342091;28;85535;-92
2022/04/22 00:14:02;;;;;;;;;;;14.30;70.70;14.60;97911.00;;;;344582;28;88451;-92
2022/04/22 00:14:15;;;;;;;;;;;14.30;70.70;14.50;97918.00;;;;343398;28;86017;-91
2022/04/22 00:14:29;;;;;;;;;;;14.30;70.90;14.50;97922.00;;;;343180;28;87138;-92
2022/04/22 00:14:43;;;;;;;;;;;14.30;71.00;14.50;97918.00;;;;343296;28;86449;-91
2022/04/22 00:14:55;;;;;;;;;;;14.30;71.10;14.50;97922.00;;;;343096;28;88363;-92
2022/04/22 00:15:08;;;;;;;;;;;14.20;71.10;14.50;97919.00;;;;344814;28;85909;-92
2022/04/22 00:15:20;;;;;;;;;;;14.20;71.10;14.50;97921.00;;;;341828;28;87082;-92
2022/04/22 00:15:32;;;;;;;;;;;14.20;71.00;14.50;97919.00;;;;343315;28;85486;-91
2022/04/22 00:15:44;;;;;;;;;;;14.20;71.60;14.60;97918.00;;;;343025;28;88111;-91
2022/04/22 00:15:56;;;;;;;;;;;14.30;70.80;14.60;97917.00;;;;344547;28;84118;-91
2022/04/22 00:16:08;;;;;;;;;;;14.20;70.70;14.60;97927.00;;;;344377;28;86189;-92
2022/04/22 00:16:21;;;;;;;;;;;14.20;70.70;14.60;97919.00;;;;342079;28;85979;-92
2022/04/22 00:16:33;;;;;;;;;;;14.30;70.60;14.60;97920.00;;;;343191;28;87050;-91
2022/04/22 00:16:45;;;;;;;;;;;14.30;70.60;14.60;97915.00;;;;344302;28;86530;-92
2022/04/22 00:16:57;;;;;;;;;;;14.30;70.60;14.60;97917.00;;;;344534;28;87696;-91
2022/04/22 00:17:09;;;;;;;;;;;14.20;70.60;14.60;97915.00;;;;343559;28;84064;-92
2022/04/22 00:17:21;;;;;;;;;;;14.30;70.70;14.50;97921.00;;;;343260;28;86781;-92
2022/04/22 00:17:33;;;;;;;;;;;14.20;70.70;14.50;97920.00;;;;343437;28;85103;-92
2022/04/22 00:17:45;;;;;;;;;;;14.20;70.80;14.40;97910.00;;;;344459;28;87648;-91
2022/04/22 00:17:57;;;;;;;;;;;14.20;71.00;14.40;97921.00;;;;344852;28;84192;-92
2022/04/22 00:18:09;;;;;;;;;;;14.20;71.00;14.40;97922.00;;;;344571;28;87777;-92
2022/04/22 00:18:22;;;;;;;;;;;14.20;71.00;14.40;97915.00;;;;346170;28;84916;-92
2022/04/22 00:18:34;;;;;;;;;;;14.20;71.00;14.40;97920.00;;;;343260;28;86808;-91
2022/04/22 00:18:46;;;;;;;;;;;14.20;70.90;14.50;97909.00;;;;344797;28;86085;-92
2022/04/22 00:18:59;;;;;;;;;;;14.20;70.70;14.50;97920.00;;;;345533;28;86169;-91
2022/04/22 00:19:10;;;;;;;;;;;14.20;70.70;14.60;97916.00;;;;344702;28;85572;-92
2022/04/22 00:19:22;;;;;;;;;;;14.20;70.70;14.50;97920.00;;;;343141;28;87230;-91
2022/04/22 00:19:34;;;;;;;;;;;14.20;70.70;14.50;97919.00;;;;344410;28;85145;-92
2022/04/22 00:19:46;;;;;;;;;;;14.20;70.80;14.50;97924.00;;;;343357;28;87040;-92
2022/04/22 00:19:58;;;;;;;;;;;14.20;70.80;14.50;97916.00;;;;342079;28;84822;-92
2022/04/22 00:20:11;;;;;;;;;;;14.20;70.70;14.60;97922.00;;;;345836;28;87378;-92
2022/04/22 00:20:23;;;;;;;;;;;14.20;70.70;14.60;97914.00;;;;343282;28;86078;-91
2022/04/22 00:20:35;;;;;;;;;;;14.20;70.90;14.70;97914.00;;;;343248;28;86982;-92
2022/04/22 00:20:46;;;;;;;;;;;14.30;71.10;14.60;97918.00;;;;344747;28;85842;-91
2022/04/22 00:20:58;;;;;;;;;;;14.30;71.20;14.60;97920.00;;;;344421;28;86851;-92
2022/04/22 00:21:10;;;;;;;;;;;14.20;71.10;14.70;97911.00;;;;344854;28;86118;-92
2022/04/22 00:21:22;;;;;;;;;;;14.30;71.20;14.60;97918.00;;;;344294;28;88630;-92
2022/04/22 00:21:34;;;;;;;;;;;14.30;71.00;14.60;97911.00;;;;346168;28;84786;-92
2022/04/22 00:21:47;;;;;;;;;;;14.30;70.80;14.60;97918.00;;;;341736;28;88160;-91
2022/04/22 00:21:59;;;;;;;;;;;14.30;71.20;14.60;97922.00;;;;344842;28;83833;-92
2022/04/22 00:22:11;;;;;;;;;;;14.30;71.30;14.60;97919.00;;;;345977;28;87598;-92
2022/04/22 00:22:23;;;;;;;;;;;14.30;71.40;14.60;97916.00;;;;344785;28;84786;-92
2022/04/22 00:22:41;;;;;;;;;;;14.30;71.40;14.50;97916.00;;;;342939;28;86858;-92
2022/04/22 00:22:52;;;;;;;;;;;14.20;71.40;14.50;97917.00;;;;344725;28;83960;-92
2022/04/22 00:23:04;;;;;;;;;;;14.30;71.70;14.60;97912.00;;;;344038;28;88482;-91
2022/04/22 00:23:16;;;;;;;;;;;14.20;71.70;14.60;97915.00;;;;343484;28;84693;-92
2022/04/22 00:23:28;;;;;;;;;;;14.20;71.50;14.50;97919.00;;;;341774;28;86205;-91
2022/04/22 00:23:40;;;;;;;;;;;14.20;71.60;14.60;97911.00;;;;344549;28;84865;-92
2022/04/22 00:23:58;;;;;;;;;;;14.20;71.40;14.70;97909.00;;;;347106;28;86834;-92
2022/04/22 00:24:10;;;;;;;;;;;14.30;71.20;14.60;97914.00;;;;348192;28;11933;-91
2022/04/22 00:24:22;;;;;;;;;;;14.20;71.20;14.70;97912.00;;;;341797;28;86803;-91
2022/04/22 00:24:34;;;;;;;;;;;14.30;71.70;14.70;97913.00;;;;344809;28;84909;-93
2022/04/22 00:24:46;;;;;;;;;;;14.30;71.10;14.70;97914.00;;;;344445;28;88266;-92
2022/04/22 00:24:58;;;;;;;;;;;14.30;71.00;14.70;97911.00;;;;344775;28;85022;-92
2022/04/22 00:25:11;;;;;;;;;;;14.30;71.00;14.60;97907.00;;;;344457;28;87517;-92
2022/04/22 00:25:23;;;;;;;;;;;14.30;71.10;14.60;97913.00;;;;347414;28;85568;-92
2022/04/22 00:25:35;;;;;;;;;;;14.30;71.40;14.50;97907.00;;;;342798;28;87298;-92
2022/04/22 00:25:46;;;;;;;;;;;14.30;71.50;14.50;97915.00;;;;344446;28;87525;-92
2022/04/22 00:25:58;;;;;;;;;;;14.30;71.40;14.50;97914.00;;;;345893;28;88592;-92
2022/04/22 00:26:11;;;;;;;;;;;14.30;71.30;14.50;97904.00;;;;344635;28;85543;-92
2022/04/22 00:26:22;;;;;;;;;;;14.30;71.40;14.50;97913.00;;;;344463;28;87559;-92
2022/04/22 00:26:34;;;;;;;;;;;14.30;71.40;14.50;97911.00;;;;343637;28;85913;-92
2022/04/22 00:26:46;;;;;;;;;;;14.30;71.40;14.50;97909.00;;;;344546;28;86775;-92
2022/04/22 00:26:58;;;;;;;;;;;14.30;71.40;14.60;97911.00;;;;343325;28;86124;-92
2022/04/22 00:27:10;;;;;;;;;;;14.20;71.10;14.60;97904.00;;;;344592;28;87134;-92
2022/04/22 00:27:22;;;;;;;;;;;14.30;71.00;14.70;97901.00;;;;343491;28;86640;-91
2022/04/22 00:27:34;;;;;;;;;;;14.20;71.00;14.70;97912.00;;;;344500;28;87000;-91
2022/04/22 00:27:45;;;;;;;;;;;14.30;71.10;14.70;97909.00;;;;343324;28;85025;-92
2022/04/22 00:27:58;;;;;;;;;;;14.20;71.00;14.60;97905.00;;;;343193;28;86746;-92
2022/04/22 00:28:10;;;;;;;;;;;14.30;71.00;14.60;97898.00;;;;344914;28;84361;-92
2022/04/22 00:28:22;;;;;;;;;;;14.30;71.20;14.70;97903.00;;;;344428;28;88445;-92
2022/04/22 00:28:34;;;;;;;;;;;14.30;71.30;14.60;97902.00;;;;345618;28;85396;-92
2022/04/22 00:28:46;;;;;;;;;;;14.30;71.30;14.60;97906.00;;;;344083;28;88246;-91
2022/04/22 00:28:57;;;;;;;;;;;14.30;71.40;14.70;97906.00;;;;343482;28;84448;-91
2022/04/22 00:29:09;;;;;;;;;;;14.30;71.30;14.80;97899.00;;;;346696;28;88326;-91
2022/04/22 00:29:21;;;;;;;;;;;14.30;71.30;14.90;97901.00;;;;343572;28;85089;-91
2022/04/22 00:29:33;;;;;;;;;;;14.30;71.40;14.80;97904.00;;;;344530;28;88347;-92
2022/04/22 00:29:45;;;;;;;;;;;14.30;71.30;14.70;97904.00;;;;344731;28;86434;-92
2022/04/22 00:29:57;;;;;;;;;;;14.30;71.40;14.70;97905.00;;;;344526;28;87206;-92
2022/04/22 00:30:10;;;;;;;;;;;14.30;71.40;14.60;97903.00;;;;344858;28;84280;-93
2022/04/22 00:30:22;;;;;;;;;;;14.30;71.60;14.60;97898.00;;;;344470;28;88037;-93
2022/04/22 00:30:34;;;;;;;;;;;14.30;71.60;14.70;97908.00;;;;343492;28;86713;-92
2022/04/22 00:30:47;;;;;;;;;;;14.30;71.50;14.60;97902.00;;;;344546;28;87632;-93
2022/04/22 00:30:59;;;;;;;;;;;14.30;71.40;14.70;97904.00;;;;344795;28;85029;-93
2022/04/22 00:31:11;;;;;;;;;;;14.30;71.60;14.80;97898.00;;;;344500;28;87563;-92
2022/04/22 00:31:23;;;;;;;;;;;14.30;71.50;14.90;97903.00;;;;343453;28;85903;-92
2022/04/22 00:31:35;;;;;;;;;;;14.30;71.50;14.80;97903.00;;;;343448;28;88480;-93
2022/04/22 00:31:47;;;;;;;;;;;14.40;71.40;14.80;97899.00;;;;343140;28;86413;-93
2022/04/22 00:31:59;;;;;;;;;;;14.30;71.40;14.80;97905.00;;;;343088;28;88520;-93
2022/04/22 00:32:10;;;;;;;;;;;14.30;71.40;14.80;97906.00;;;;342110;28;84684;-92
2022/04/22 00:32:22;;;;;;;;;;;14.30;71.20;14.70;97904.00;;;;343192;28;86600;-93
2022/04/22 00:32:35;;;;;;;;;;;14.40;71.10;14.70;97899.00;;;;343559;28;86369;-93
2022/04/22 00:32:47;;;;;;;;;;;14.30;71.00;14.70;97908.00;;;;343193;28;86010;-93
2022/04/22 00:32:59;;;;;;;;;;;14.30;70.80;14.80;97900.00;;;;344709;28;86241;-93
2022/04/22 00:33:11;;;;;;;;;;;14.40;71.70;14.80;97906.00;;;;345918;28;87777;-92
2022/04/22 00:33:23;;;;;;;;;;;14.40;71.20;14.70;97908.00;;;;344728;28;85860;-92
2022/04/22 00:33:35;;;;;;;;;;;14.40;71.30;14.80;97905.00;;;;344590;28;88256;-92
2022/04/22 00:33:47;;;;;;;;;;;14.40;71.20;14.80;97905.00;;;;346097;28;84884;-92
2022/04/22 00:33:59;;;;;;;;;;;14.30;71.20;14.70;97900.00;;;;345893;28;88259;-92
2022/04/22 00:34:10;;;;;;;;;;;14.40;71.40;14.60;97905.00;;;;344846;28;84099;-93
2022/04/22 00:34:22;;;;;;;;;;;14.40;71.30;14.60;97910.00;;;;343107;28;88095;-92
2022/04/22 00:34:34;;;;;;;;;;;14.30;71.40;14.50;97899.00;;;;343118;28;86430;-93
2022/04/22 00:34:46;;;;;;;;;;;14.30;71.40;14.50;97903.00;;;;343277;28;88496;-92
2022/04/22 00:34:59;;;;;;;;;;;14.30;71.50;14.50;97902.00;;;;344760;28;86140;-93
2022/04/22 00:35:11;;;;;;;;;;;14.30;71.50;14.60;97899.00;;;;341722;28;88889;-92
2022/04/22 00:35:23;;;;;;;;;;;14.30;71.40;14.60;97903.00;;;;344596;28;86290;-93
2022/04/22 00:35:35;;;;;;;;;;;14.30;71.30;14.50;97904.00;;;;344669;28;87893;-92
2022/04/22 00:35:46;;;;;;;;;;;14.30;71.50;14.50;97904.00;;;;346145;28;85104;-92
2022/04/22 00:35:59;;;;;;;;;;;14.30;71.50;14.50;97911.00;;;;346012;28;88192;-92
2022/04/22 00:36:11;;;;;;;;;;;14.30;71.50;14.60;97906.00;;;;343449;28;84631;-92
2022/04/22 00:36:23;;;;;;;;;;;14.30;71.50;14.70;97901.00;;;;344483;28;86996;-93
2022/04/22 00:36:35;;;;;;;;;;;14.30;71.70;14.70;97897.00;;;;347692;28;85983;-93
2022/04/22 00:36:47;;;;;;;;;;;14.30;71.40;14.80;97896.00;;;;344501;28;88165;-93
2022/04/22 00:36:58;;;;;;;;;;;14.30;71.20;14.90;97901.00;;;;344736;28;86943;-93
2022/04/22 00:37:10;;;;;;;;;;;14.40;71.00;14.80;97904.00;;;;344453;28;85969;-92
2022/04/22 00:37:22;;;;;;;;;;;14.30;70.80;14.80;97906.00;;;;344926;28;84975;-92
2022/04/22 00:37:34;;;;;;;;;;;14.30;70.70;14.60;97905.00;;;;343937;28;87851;-93
2022/04/22 00:37:47;;;;;;;;;;;14.40;71.20;14.60;97907.00;;;;344762;28;85266;-93
2022/04/22 00:37:59;;;;;;;;;;;14.40;71.10;14.50;97897.00;;;;343128;28;87035;-93
2022/04/22 00:38:11;;;;;;;;;;;14.30;71.00;14.50;97902.00;;;;344846;28;84878;-93
2022/04/22 00:38:23;;;;;;;;;;;14.30;71.00;14.70;97903.00;;;;344461;28;87988;-92
2022/04/22 00:38:35;;;;;;;;;;;14.30;71.20;14.70;97902.00;;;;343617;28;83978;-92
2022/04/22 00:38:47;;;;;;;;;;;14.30;71.20;14.60;97904.00;;;;343151;28;88643;-93
2022/04/22 00:38:58;;;;;;;;;;;14.30;71.00;14.60;97896.00;;;;343220;28;85884;-93
2022/04/22 00:39:10;;;;;;;;;;;14.30;70.70;14.70;97909.00;;;;343132;28;87927;-93
2022/04/22 00:39:22;;;;;;;;;;;14.40;70.80;14.70;97904.00;;;;343392;28;86575;-92
2022/04/22 00:39:34;;;;;;;;;;;14.40;70.80;14.80;97908.00;;;;343107;28;86593;-92
2022/04/22 00:39:49;;;;;;;;;;;14.40;70.60;14.80;97905.00;;;;343434;28;86162;-92
2022/04/22 00:40:01;;;;;;;;;;;14.40;70.50;14.90;97906.00;;;;343154;28;88477;-92
2022/04/22 00:40:13;;;;;;;;;;;14.40;70.50;14.80;97899.00;;;;343549;28;84007;-92
2022/04/22 00:40:25;;;;;;;;;;;14.40;70.40;14.70;97906.00;;;;344520;28;87276;-92
2022/04/22 00:40:37;;;;;;;;;;;14.40;70.40;14.70;97902.00;;;;342862;28;84687;-93
2022/04/22 00:40:49;;;;;;;;;;;14.40;70.60;14.60;97903.00;;;;344483;28;87219;-92
2022/04/22 00:41:01;;;;;;;;;;;14.40;70.80;14.70;97898.00;;;;343330;28;84433;-92
2022/04/22 00:41:13;;;;;;;;;;;14.40;70.70;14.70;97896.00;;;;344593;28;86808;-93
2022/04/22 00:41:25;;;;;;;;;;;14.40;70.60;14.70;97902.00;;;;343409;28;85526;-92
2022/04/22 00:41:36;;;;;;;;;;;14.40;70.60;14.70;97901.00;;;;343555;28;87348;-93
2022/04/22 00:41:50;;;;;;;;;;;14.40;70.70;14.70;97907.00;;;;344683;28;85496;-92
2022/04/22 00:42:11;;;;;;;;;;;14.40;70.80;14.70;97907.00;;;;343115;28;87007;-93
2022/04/22 00:42:28;;;;;;;;;;;14.30;70.70;14.70;97904.00;;;;342037;28;83943;-92
2022/04/22 00:42:40;;;;;;;;;;;14.40;70.80;14.70;97909.00;;;;347289;28;87198;-93
2022/04/22 00:42:52;;;;;;;;;;;14.40;70.80;14.80;97903.00;;;;343224;28;84567;-92
2022/04/22 00:43:39;;;;;;;;;;;14.30;71.30;14.60;97897.00;;;;343068;28;88685;-92
2022/04/22 00:43:52;;;;;;;;;;;14.40;70.80;14.50;97902.00;;;;342700;28;85161;-93
2022/04/22 00:44:04;;;;;;;;;;;14.30;71.00;14.50;97903.00;;;;343093;28;88068;-93
2022/04/22 00:44:16;;;;;;;;;;;14.30;71.20;14.50;97902.00;;;;341998;28;86304;-93
2022/04/22 00:44:28;;;;;;;;;;;14.30;71.20;14.50;97903.00;;;;341773;28;88689;-93
2022/04/22 00:44:39;;;;;;;;;;;14.30;71.10;14.60;97904.00;;;;344566;28;85353;-93
2022/04/22 00:44:51;;;;;;;;;;;14.30;70.80;14.60;97905.00;;;;343212;28;87204;-92
2022/04/22 00:45:04;;;;;;;;;;;14.30;70.70;14.60;97908.00;;;;343302;28;83419;-92
2022/04/22 00:45:18;;;;;;;;;;;14.30;70.70;14.60;97900.00;;;;343253;28;86719;-92
2022/04/22 00:45:30;;;;;;;;;;;14.30;70.70;14.70;97899.00;;;;343433;28;86394;-92
2022/04/22 00:45:42;;;;;;;;;;;14.30;70.90;14.70;97904.00;;;;341734;28;87045;-93
2022/04/22 00:45:54;;;;;;;;;;;14.30;71.00;14.60;97900.00;;;;346221;28;84968;-92
2022/04/22 00:46:06;;;;;;;;;;;14.30;71.20;14.60;97899.00;;;;341965;28;86941;-93
2022/04/22 00:46:18;;;;;;;;;;;14.30;71.10;14.60;97898.00;;;;344677;28;86375;-93
2022/04/22 00:46:30;;;;;;;;;;;14.30;70.90;14.60;97902.00;;;;344104;28;87632;-92
2022/04/22 00:46:42;;;;;;;;;;;14.30;71.10;14.70;97900.00;;;;344013;28;85622;-92
2022/04/22 00:46:55;;;;;;;;;;;14.30;71.00;14.60;97897.00;;;;341771;28;87717;-93
2022/04/22 00:47:07;;;;;;;;;;;14.30;71.30;14.70;97906.00;;;;341344;28;83333;-92
2022/04/22 00:47:19;;;;;;;;;;;14.30;71.40;14.70;97905.00;;;;341799;28;87194;-92
2022/04/22 00:47:31;;;;;;;;;;;14.30;71.40;14.80;97900.00;;;;343296;28;86822;-92
2022/04/22 00:47:42;;;;;;;;;;;14.30;71.20;14.70;97905.00;;;;344311;28;88507;-92
2022/04/22 00:47:54;;;;;;;;;;;14.30;71.20;14.70;97898.00;;;;344894;28;84859;-92
2022/04/22 00:48:06;;;;;;;;;;;14.30;71.20;14.60;97901.00;;;;343267;28;88133;-93
2022/04/22 00:48:19;;;;;;;;;;;14.30;71.10;14.70;97898.00;;;;346139;28;86161;-92
2022/04/22 00:48:31;;;;;;;;;;;14.30;71.00;14.70;97899.00;;;;345933;28;88102;-93
2022/04/22 00:48:43;;;;;;;;;;;14.30;71.10;14.60;97892.00;;;;346190;28;85166;-92
2022/04/22 00:48:55;;;;;;;;;;;14.30;71.10;14.70;97903.00;;;;345904;28;87321;-93
2022/04/22 00:49:07;;;;;;;;;;;14.30;71.10;14.80;97894.00;;;;346189;28;84633;-92
2022/04/22 00:49:19;;;;;;;;;;;14.30;71.10;14.80;97902.00;;;;344560;28;87715;-92
2022/04/22 00:49:31;;;;;;;;;;;14.30;71.00;14.70;97897.00;;;;344411;28;86294;-92
2022/04/22 00:49:43;;;;;;;;;;;14.30;71.10;14.70;97897.00;;;;344911;28;86991;-93
2022/04/22 00:49:56;;;;;;;;;;;14.40;71.30;14.60;97899.00;;;;344539;28;84241;-93
2022/04/22 00:50:08;;;;;;;;;;;14.30;71.20;14.60;97896.00;;;;343379;28;88271;-93
2022/04/22 00:50:20;;;;;;;;;;;14.30;71.20;14.70;97896.00;;;;344637;28;85170;-92
2022/04/22 00:50:32;;;;;;;;;;;14.30;71.30;14.70;97897.00;;;;344470;28;87631;-93
2022/04/22 00:50:44;;;;;;;;;;;14.30;71.00;14.60;97894.00;;;;343436;28;85210;-92
2022/04/22 00:50:56;;;;;;;;;;;14.40;71.10;14.60;97897.00;;;;343133;28;87086;-93
2022/04/22 00:51:09;;;;;;;;;;;14.30;70.80;14.70;97892.00;;;;343478;28;84811;-92
2022/04/22 00:51:22;;;;;;;;;;;14.30;70.80;14.70;97898.00;;;;343212;28;87161;-92
2022/04/22 00:51:34;;;;;;;;;;;14.40;70.90;14.70;97894.00;;;;346113;28;85791;-93
2022/04/22 00:51:46;;;;;;;;;;;14.30;70.90;14.60;97890.00;;;;344414;28;87467;-92
2022/04/22 00:51:57;;;;;;;;;;;14.30;70.90;14.70;97887.00;;;;342055;28;85002;-92
2022/04/22 00:52:11;;;;;;;;;;;14.40;70.80;14.70;97890.00;;;;343126;28;86068;-92
2022/04/22 00:52:23;;;;;;;;;;;14.30;70.80;14.80;97894.00;;;;344691;28;86306;-92
2022/04/22 00:52:34;;;;;;;;;;;14.30;70.70;14.80;97886.00;;;;344222;28;88248;-93
2022/04/22 00:52:46;;;;;;;;;;;14.30;70.70;14.80;97892.00;;;;343220;28;85062;-93
2022/04/22 00:52:58;;;;;;;;;;;14.30;70.70;14.70;97889.00;;;;344474;28;87159;-92
2022/04/22 00:53:10;;;;;;;;;;;14.30;70.70;14.70;97890.00;;;;345747;28;84720;-93
2022/04/22 00:53:22;;;;;;;;;;;14.40;70.80;14.70;97883.00;;;;342959;28;87091;-93
2022/04/22 00:53:35;;;;;;;;;;;14.30;70.70;14.70;97891.00;;;;344775;28;85025;-93
2022/04/22 00:53:47;;;;;;;;;;;14.30;70.90;14.70;97887.00;;;;344353;28;86977;-93
2022/04/22 00:53:59;;;;;;;;;;;14.30;70.80;14.70;97893.00;;;;343456;28;84610;-93
2022/04/22 00:54:11;;;;;;;;;;;14.30;70.80;14.70;97889.00;;;;344649;28;85868;-92
2022/04/22 00:54:23;;;;;;;;;;;14.30;70.90;14.80;97890.00;;;;348691;28;38009;-93
2022/04/22 00:54:35;;;;;;;;;;;14.30;70.80;14.80;97890.00;;;;345590;28;83000;-93
2022/04/22 00:54:48;;;;;;;;;;;14.30;70.80;14.80;97882.00;;;;346153;28;85036;-93
2022/04/22 00:55:00;;;;;;;;;;;14.40;71.40;14.90;97891.00;;;;343066;28;88212;-93
2022/04/22 00:55:12;;;;;;;;;;;14.40;70.80;14.90;97889.00;;;;347581;28;84337;-93
2022/04/22 00:55:24;;;;;;;;;;;14.40;70.80;14.90;97892.00;;;;347275;28;87429;-93
2022/04/22 00:55:39;;;;;;;;;;;14.40;70.80;14.80;97887.00;;;;346309;28;84925;-93
2022/04/22 00:55:51;;;;;;;;;;;14.40;70.80;14.80;97891.00;;;;343861;28;88204;-93
2022/04/22 00:56:04;;;;;;;;;;;14.40;70.80;14.90;97886.00;;;;346331;28;85717;-93
2022/04/22 00:56:16;;;;;;;;;;;14.40;70.80;14.90;97884.00;;;;344335;28;87216;-92
2022/04/22 00:56:28;;;;;;;;;;;14.40;70.60;14.80;97889.00;;;;344783;28;85761;-93
2022/04/22 00:56:40;;;;;;;;;;;14.40;70.80;14.80;97889.00;;;;347073;28;86341;-92
2022/04/22 00:56:52;;;;;;;;;;;14.40;70.80;14.80;97896.00;;;;343488;28;86131;-92
2022/04/22 00:57:04;;;;;;;;;;;14.40;70.90;14.90;97888.00;;;;347295;28;87014;-93
2022/04/22 00:57:18;;;;;;;;;;;14.40;70.90;14.80;97887.00;;;;344655;28;84816;-93
2022/04/22 00:57:30;;;;;;;;;;;14.40;71.00;14.80;97888.00;;;;341811;28;87418;-93
2022/04/22 00:57:41;;;;;;;;;;;14.40;70.90;14.90;97892.00;;;;343281;28;84703;-93
2022/04/22 00:57:53;;;;;;;;;;;14.40;70.80;14.90;97888.00;;;;343159;28;87172;-92
2022/04/22 00:58:05;;;;;;;;;;;14.40;70.80;14.80;97882.00;;;;343451;28;85870;-93
2022/04/22 00:58:17;;;;;;;;;;;14.40;70.80;14.90;97887.00;;;;344427;28;86937;-93
2022/04/22 00:58:29;;;;;;;;;;;14.40;70.80;14.90;97889.00;;;;344463;28;85209;-92
2022/04/22 00:58:44;;;;;;;;;;;14.40;70.80;14.80;97885.00;;;;345561;28;86792;-92
2022/04/22 00:58:57;;;;;;;;;;;14.40;70.90;14.80;97888.00;;;;343339;28;84273;-93
2022/04/22 00:59:10;;;;;;;;;;;14.40;70.90;14.90;97882.00;;;;341799;28;87336;-92
2022/04/22 00:59:22;;;;;;;;;;;14.40;70.80;14.90;97888.00;;;;342040;28;85172;-93
2022/04/22 00:59:34;;;;;;;;;;;14.50;70.90;14.90;97889.00;;;;343113;28;88339;-93
2022/04/22 00:59:46;;;;;;;;;;;14.40;70.80;14.90;97884.00;;;;341996;28;85211;-92
2022/04/22 00:59:58;;;;;;;;;;;14.50;70.70;14.90;97891.00;;;;344492;28;86915;-92
2022/04/22 01:00:10;;;;;;;;;;;14.50;70.50;14.90;97890.00;;;;346206;28;84747;-92
2022/04/22 01:00:22;;;;;;;;;;;14.50;70.40;14.90;97886.00;;;;347207;28;86126;-93
2022/04/22 01:00:34;;;;;;;;;;;14.50;70.40;14.90;97883.00;;;;343413;28;86080;-93
2022/04/22 01:00:46;;;;;;;;;;;14.50;70.40;14.80;97878.00;;;;344531;28;87517;-93
2022/04/22 01:00:58;;;;;;;;;;;14.50;70.40;14.90;97886.00;;;;343350;28;85834;-92
2022/04/22 01:01:11;;;;;;;;;;;14.50;70.40;14.90;97893.00;;;;345850;28;87873;-92
2022/04/22 01:01:24;;;;;;;;;;;14.50;70.50;14.90;97881.00;;;;343286;28;84418;-92
2022/04/22 01:01:38;;;;;;;;;;;14.50;70.50;14.90;97876.00;;;;342851;28;87192;-92
2022/04/22 01:01:50;;;;;;;;;;;14.50;70.60;14.90;97884.00;;;;343323;28;85553;-93
2022/04/22 01:02:02;;;;;;;;;;;14.50;70.70;14.90;97886.00;;;;341804;28;87847;-92